Portada
METAR-TAF:

METAR-TAF

Aeroports :

Rusk_County_Airport

Ladysmith, Wisconsin, Estats Units d'Amèrica

latitud: 45-29-48N, longitud: 091-00-01W, altitud: 377 m

Observació

L'informe es va fer fa 20 minuts, a les 03:35 UTC
Vent 4 kt del Sud-Oest
Temperatura 22°C
Humitat 94%
Pressió 1013 hPa
Visibilitat: 16.1 km
Cel ennuvolat a una alçada de 300 ft
Cel ennuvolat a una alçada de 2600 ft
Cel cobert a una alçada de 9500 ft

METAR: KRCX 180335Z AUTO 22004KT 10SM BKN003 BKN026 OVC095 22/21 A2991 RMK AO2 T02150210

Hora: 22:55 (03:55 UTC)


TAF: manca

Observacions i pronòstics meteorològics de més de 4000 aeroports (METAR i TAF).

Les estacions disponibles són els punts grocs i vermells al mapa.

Posi el ratolí al punt desitjat per veure el nom de l'estació.

Feu clic per veure les observacions i els pronòstics meteorològics.

Per canviar el mapa: feu clic els botons verds amb una creu de color negre per apropar; al botó verd amb un guió per allunyar la imatge; o en les fletxes verdes per a mapes adjacents.


METAR-TAF: